Time;durP1;ratioP1;P1;durP2;ratioP2;P2;SDS_P1;SDS_P2;PMS_P1;PMS_P2;Temp;Humidity;BMP_temperature;BMP_pressure;BME280_temperature;BME280_humidity;BME280_pressure;Samples;Min_cycle;Max_cycle;Signal;HPM_P1;HPM_P2
2022/10/11 00:00:57;;;;;;;;;;;8.80;99.90;;;;;;5064915;28;20101;-67
2022/10/11 00:03:22;;;;;;;15.07;2.15;;;8.80;99.90;;;;;;5078434;28;19951;-67
2022/10/11 00:05:48;;;;;;;;;;;8.60;99.90;;;;;;5078128;28;20032;-67
2022/10/11 00:08:14;;;;;;;13.40;1.92;;;8.60;99.90;;;;;;5080878;28;19916;-67
2022/10/11 00:10:41;;;;;;;17.13;2.28;;;8.60;99.90;;;;;;5076833;28;20040;-68
2022/10/11 00:13:07;;;;;;;17.08;2.22;;;8.60;99.90;;;;;;5078004;28;20527;-69
2022/10/11 00:15:33;;;;;;;14.93;2.00;;;8.60;99.90;;;;;;5078953;28;20127;-71
2022/10/11 00:17:59;;;;;;;15.98;2.10;;;8.60;99.90;;;;;;5066243;28;20056;-67
2022/10/11 00:20:25;;;;;;;;;;;8.50;99.90;;;;;;5065128;28;20079;-69
2022/10/11 00:22:52;;;;;;;13.45;1.80;;;8.40;99.90;;;;;;5066293;28;19923;-67
2022/10/11 00:25:17;;;;;;;12.98;1.70;;;8.40;99.90;;;;;;5065207;28;20423;-68
2022/10/11 00:27:43;;;;;;;;;;;8.40;99.90;;;;;;5065261;28;20057;-67
2022/10/11 00:30:10;;;;;;;12.02;1.85;;;8.40;99.90;;;;;;5081920;28;19918;-69
2022/10/11 00:32:37;;;;;;;8.77;1.67;;;8.40;99.90;;;;;;5062074;28;20159;-67
2022/10/11 00:35:05;;;;;;;8.75;1.67;;;8.40;99.90;;;;;;5064643;28;20040;-67
2022/10/11 00:37:35;;;;;;;14.93;2.22;;;8.40;99.90;;;;;;5065087;28;20496;-67
2022/10/11 00:40:03;;;;;;;9.63;1.27;;;8.40;99.90;;;;;;5067059;28;20040;-68
2022/10/11 00:42:29;;;;;;;10.82;1.73;;;8.30;99.90;;;;;;5064866;28;20051;-68
2022/10/11 00:45:14;;;;;;;;;;;8.30;99.90;;;;;;5066539;28;20045;-68
2022/10/11 00:47:40;;;;;;;15.52;2.22;;;8.30;99.90;;;;;;5064156;28;19950;-67
2022/10/11 00:50:08;;;;;;;;;;;8.30;99.90;;;;;;5066146;28;20044;-69
2022/10/11 00:52:40;;;;;;;13.95;1.77;;;8.30;99.90;;;;;;5063813;28;20031;-71
2022/10/11 00:55:13;;;;;;;15.20;1.88;;;8.30;99.90;;;;;;5066090;28;20051;-69
2022/10/11 00:57:41;;;;;;;12.75;1.90;;;8.20;99.90;;;;;;5064508;28;20044;-68
2022/10/11 01:00:09;;;;;;;13.25;2.28;;;8.20;99.90;;;;;;5066450;28;20041;-68
2022/10/11 01:02:35;;;;;;;14.18;2.08;;;8.20;99.90;;;;;;5062868;28;20037;-68
2022/10/11 02:42:43;;;;;;;10.90;1.88;;;7.90;99.90;;;;;;5058515;28;20480;-67
2022/10/11 02:45:20;;;;;;;17.17;2.85;;;7.90;99.90;;;;;;5061933;28;20434;-66
2022/10/11 02:47:46;;;;;;;16.23;2.97;;;7.90;99.90;;;;;;5061625;28;20106;-67
2022/10/11 02:50:13;;;;;;;12.75;2.47;;;7.90;99.90;;;;;;5053728;28;20064;-67
2022/10/11 02:52:40;;;;;;;13.90;2.75;;;7.90;99.90;;;;;;5055900;28;20465;-66
2022/10/11 02:55:06;;;;;;;11.25;2.55;;;7.90;99.90;;;;;;5062189;28;20056;-66
2022/10/11 02:57:32;;;;;;;10.60;2.17;;;7.90;99.90;;;;;;5058368;28;20056;-66
2022/10/11 02:59:57;;;;;;;;;;;7.90;99.90;;;;;;5062922;28;20055;-66
2022/10/11 03:02:23;;;;;;;15.40;2.50;;;8.00;99.90;;;;;;5058300;28;19916;-66
2022/10/11 03:04:49;;;;;;;;;;;7.90;99.90;;;;;;5056567;28;20036;-67
2022/10/11 03:07:14;;;;;;;9.57;2.28;;;7.90;99.90;;;;;;5060494;28;19924;-66
2022/10/11 03:09:40;;;;;;;;;;;7.90;99.90;;;;;;5057831;28;20032;-68
2022/10/11 03:12:06;;;;;;;13.07;2.80;;;7.90;99.90;;;;;;5058808;28;19923;-68
2022/10/11 03:14:32;;;;;;;;;;;7.90;99.90;;;;;;5058563;28;20060;-66
2022/10/11 03:16:58;;;;;;;9.32;2.45;;;8.00;99.90;;;;;;5061257;28;19924;-68
2022/10/11 03:19:24;;;;;;;13.85;2.53;;;8.00;99.90;;;;;;5063055;28;20497;-65
2022/10/11 03:21:50;;;;;;;;;;;7.90;99.90;;;;;;5062613;28;20115;-66
2022/10/11 03:24:16;;;;;;;12.63;2.72;;;8.00;99.90;;;;;;5061561;28;20388;-67
2022/10/11 03:26:41;;;;;;;;;;;7.90;99.90;;;;;;5059965;28;20071;-67
2022/10/11 03:29:07;;;;;;;10.27;2.60;;;7.90;99.90;;;;;;5062609;28;19928;-66
2022/10/11 03:31:32;;;;;;;17.20;2.95;;;7.90;99.90;;;;;;5058997;28;20044;-66
2022/10/11 03:33:58;;;;;;;;;;;7.90;99.90;;;;;;5063355;28;20699;-68
2022/10/11 03:36:23;;;;;;;14.10;2.67;;;7.90;99.90;;;;;;5060626;28;19917;-69
2022/10/11 03:38:49;;;;;;;;;;;7.80;99.90;;;;;;5063235;28;20089;-67
2022/10/11 03:41:15;;;;;;;12.43;2.45;;;7.70;99.90;;;;;;5061937;28;19917;-67
2022/10/11 03:43:40;;;;;;;;;;;7.70;99.90;;;;;;5063336;28;20180;-66
2022/10/11 03:46:06;;;;;;;13.25;2.35;;;7.70;99.90;;;;;;5059570;28;20522;-66
2022/10/11 03:48:31;;;;;;;;;;;7.70;99.90;;;;;;5063134;28;20041;-70
2022/10/11 03:50:57;;;;;;;7.05;2.15;;;7.70;99.90;;;;;;5060602;28;19920;-67
2022/10/11 03:53:23;;;;;;;;;;;7.80;99.90;;;;;;5063292;28;20045;-67
2022/10/11 03:55:53;;;;;;;17.67;2.60;;;7.80;99.90;;;;;;5062514;28;19939;-67
2022/10/11 03:58:18;;;;;;;7.95;2.20;;;7.80;99.90;;;;;;5063848;28;20045;-66
2022/10/11 04:00:44;;;;;;;;;;;7.80;99.90;;;;;;5062257;28;20389;-68
2022/10/11 04:03:10;;;;;;;14.68;2.83;;;7.80;99.90;;;;;;5065102;28;19967;-66
2022/10/11 04:05:35;;;;;;;12.10;2.25;;;7.80;99.90;;;;;;5063822;28;20629;-66
2022/10/11 04:08:01;;;;;;;12.60;2.17;;;7.80;99.90;;;;;;5064931;28;20115;-67
2022/10/11 04:10:27;;;;;;;;;;;7.80;99.90;;;;;;5064301;28;20566;-67
2022/10/11 04:12:52;;;;;;;12.95;2.53;;;7.90;99.90;;;;;;5064907;28;19920;-66
2022/10/11 04:15:18;;;;;;;18.48;2.70;;;7.90;99.90;;;;;;5058241;28;20037;-66
2022/10/11 04:17:44;;;;;;;;;;;7.90;99.90;;;;;;5065282;28;20131;-67
2022/10/11 04:20:09;;;;;;;16.67;2.78;;;7.80;99.90;;;;;;5065543;28;19920;-66
2022/10/11 04:22:35;;;;;;;;;;;7.80;99.90;;;;;;5063756;28;20039;-67
2022/10/11 04:25:01;;;;;;;12.00;2.10;;;7.80;99.90;;;;;;5065484;28;20402;-66
2022/10/11 04:27:28;;;;;;;17.17;2.70;;;7.70;99.90;;;;;;5061984;28;20044;-70
2022/10/11 04:29:53;;;;;;;10.90;2.13;;;7.70;99.90;;;;;;5065642;28;20040;-67
2022/10/11 04:32:19;;;;;;;;;;;7.70;99.90;;;;;;5053921;28;20175;-67
2022/10/11 04:34:45;;;;;;;18.58;2.50;;;7.70;99.90;;;;;;5048883;28;19927;-67
2022/10/11 04:37:11;;;;;;;;;;;7.70;99.90;;;;;;5061091;28;20098;-66
2022/10/11 04:39:39;;;;;;;14.23;2.47;;;7.70;99.90;;;;;;5065521;28;19921;-66
2022/10/11 04:42:04;;;;;;;;;;;7.80;99.90;;;;;;5063934;28;20377;-67
2022/10/11 04:44:30;;;;;;;16.60;2.60;;;7.80;99.90;;;;;;5061761;28;19927;-66
2022/10/11 04:46:56;;;;;;;12.77;2.38;;;7.80;99.90;;;;;;5062549;28;20045;-69
2022/10/11 04:49:22;;;;;;;;;;;7.70;99.90;;;;;;5066061;28;20063;-67
2022/10/11 04:51:49;;;;;;;11.55;2.13;;;7.70;99.90;;;;;;5064310;28;19920;-66
2022/10/11 04:54:15;;;;;;;17.98;2.05;;;7.70;99.90;;;;;;5065680;28;20823;-69
2022/10/11 04:56:40;;;;;;;;;;;7.80;99.90;;;;;;5061680;28;20044;-67
2022/10/11 04:59:06;;;;;;;12.70;2.63;;;7.70;99.90;;;;;;5064683;28;19962;-66
2022/10/11 05:01:32;;;;;;;;;;;7.70;99.90;;;;;;5061902;28;20067;-66
2022/10/11 05:03:57;;;;;;;12.13;2.60;;;7.70;99.90;;;;;;5064583;28;20560;-68
2022/10/11 05:06:23;;;;;;;20.00;3.38;;;7.70;99.90;;;;;;5061091;28;20124;-66
2022/10/11 05:08:49;;;;;;;16.95;2.55;;;7.70;99.90;;;;;;5065137;28;20041;-66
2022/10/11 05:11:15;;;;;;;;;;;7.70;99.90;;;;;;5063119;28;20048;-66
2022/10/11 05:13:42;;;;;;;13.73;2.38;;;7.70;99.90;;;;;;5064660;28;19920;-67
2022/10/11 05:16:08;;;;;;;19.30;2.58;;;7.70;99.90;;;;;;5060990;28;20398;-66
2022/10/11 05:18:34;;;;;;;;;;;7.70;99.90;;;;;;5060886;28;20630;-67
2022/10/11 05:21:04;;;;;;;12.30;2.03;;;7.70;99.90;;;;;;5062683;28;19999;-67
2022/10/11 05:23:31;;;;;;;12.93;2.25;;;7.70;99.90;;;;;;5062750;28;20486;-66
2022/10/11 05:25:57;;;;;;;18.92;2.75;;;7.80;99.90;;;;;;5057490;28;20520;-67
2022/10/11 05:28:22;;;;;;;11.38;2.03;;;7.80;99.90;;;;;;5064905;28;20040;-66
2022/10/11 05:30:48;;;;;;;;;;;7.70;99.90;;;;;;5062024;28;20056;-68
2022/10/11 05:33:14;;;;;;;11.88;2.70;;;7.70;99.90;;;;;;5062806;28;19961;-68
2022/10/11 05:35:40;;;;;;;8.35;2.10;;;7.70;99.90;;;;;;5053536;28;20033;-66
2022/10/11 05:38:06;;;;;;;12.55;2.10;;;7.70;99.90;;;;;;5063967;28;20208;-65
2022/10/11 05:40:32;;;;;;;18.60;3.03;;;7.70;99.90;;;;;;5062557;28;20043;-64
2022/10/11 05:42:58;;;;;;;10.55;2.60;;;7.60;99.90;;;;;;5060275;28;20033;-65
2022/10/11 05:45:23;;;;;;;;;;;7.60;99.90;;;;;;5062422;28;20577;-67
2022/10/11 05:47:49;;;;;;;12.85;1.90;;;7.60;99.90;;;;;;5062334;28;20307;-65
2022/10/11 05:50:15;;;;;;;15.00;3.45;;;7.60;99.90;;;;;;5064312;28;20037;-67
2022/10/11 05:52:40;;;;;;;;;;;7.70;99.90;;;;;;5063010;28;20416;-68
2022/10/11 05:55:06;;;;;;;6.97;2.08;;;7.70;99.90;;;;;;5057163;28;20350;-67
2022/10/11 05:57:32;;;;;;;15.20;2.47;;;7.60;99.90;;;;;;5049607;28;20036;-61
2022/10/11 05:59:57;;;;;;;;;;;7.60;99.90;;;;;;5057513;28;20127;-67
2022/10/11 06:02:23;;;;;;;10.05;1.95;;;7.60;99.90;;;;;;5057119;28;19995;-65
2022/10/11 06:04:49;;;;;;;;;;;7.60;99.90;;;;;;5058225;28;20037;-67
2022/10/11 06:07:14;;;;;;;;;;;7.60;99.90;;;;;;5060990;28;19924;-68
2022/10/11 06:09:40;;;;;;;;;;;7.60;99.90;;;;;;5057776;28;19999;-67
2022/10/11 06:12:06;;;;;;;;;;;7.60;99.90;;;;;;5059817;28;19916;-69
2022/10/11 06:14:32;;;;;;;;;;;;;;;;;;5058765;28;20510;-66
2022/10/11 06:16:58;;;;;;;;;;;;;;;;;;5057092;28;19916;-62
2022/10/11 06:19:24;;;;;;;;;;;;;;;;;;5059346;28;19923;-62
2022/10/11 06:21:49;;;;;;;;;;;;;;;;;;5056823;28;20277;-65
2022/10/11 06:24:15;;;;;;;;;;;;;;;;;;5054969;28;19951;-66
2022/10/11 06:26:41;;;;;;;;;;;;;;;;;;5059721;28;19925;-66
2022/10/11 06:29:08;;;;;;;;;;;;;;;;;;5056546;28;19925;-66
2022/10/11 06:31:34;;;;;;;;;;;;;;;;;;5060885;28;19924;-66
2022/10/11 06:34:00;;;;;;;;;;;;;;;;;;5063685;28;19916;-66
2022/10/11 06:36:26;;;;;;;;;;;;;;;;;;5062041;28;19920;-66
2022/10/11 06:38:52;;;;;;;;;;;;;;;;;;5065565;28;19917;-67
2022/10/11 06:41:18;;;;;;;;;;;;;;;;;;5062361;28;20015;-65
2022/10/11 06:43:44;;;;;;;;;;;;;;;;;;5064374;28;19927;-66
2022/10/11 06:46:10;;;;;;;;;;;;;;;;;;5061596;28;19920;-66
2022/10/11 06:48:36;;;;;;;;;;;;;;;;;;5064367;28;19916;-67
2022/10/11 06:51:02;;;;;;;;;;;;;;;;;;5061522;28;19928;-67
2022/10/11 06:53:28;;;;;;;;;;;;;;;;;;5062898;28;19939;-67
2022/10/11 06:55:54;;;;;;;;;;;;;;;;;;5060636;28;19916;-66
2022/10/11 06:58:20;;;;;;;;;;;;;;;;;;5058602;28;19973;-65
2022/10/11 07:00:46;;;;;;;;;;;;;;;;;;5059815;28;19920;-65
2022/10/11 07:03:12;;;;;;;;;;;;;;;;;;5063298;28;19920;-67
2022/10/11 07:05:37;;;;;;;;;;;;;;;;;;5058481;28;20395;-66
2022/10/11 07:08:03;;;;;;;;;;;;;;;;;;5061774;28;19944;-67
2022/10/11 07:10:29;;;;;;;;;;;;;;;;;;5062633;28;19920;-67
2022/10/11 07:12:56;;;;;;;;;;;;;;;;;;5063366;28;19978;-66
2022/10/11 07:15:22;;;;;;;;;;;;;;;;;;5057406;28;19931;-66
2022/10/11 07:17:48;;;;;;;;;;;;;;;;;;5064105;28;20207;-66
2022/10/11 07:20:14;;;;;;;;;;;;;;;;;;5065170;28;20355;-66
2022/10/11 07:22:39;;;;;;;;;;;;;;;;;;5061826;28;19920;-65
2022/10/11 07:25:05;;;;;;;;;;;;;;;;;;5063831;28;19941;-66
2022/10/11 07:27:31;;;;;;;;;;;;;;;;;;5062000;28;20300;-66
2022/10/11 07:29:57;;;;;;;;;;;;;;;;;;5069227;28;19923;-65
2022/10/11 07:32:23;;;;;;;;;;;;;;;;;;5064215;28;19924;-66
2022/10/11 07:34:50;;;;;;;;;;;;;;;;;;5067194;28;19920;-67
2022/10/11 07:37:16;;;;;;;;;;;;;;;;;;5065590;28;19921;-67
2022/10/11 07:39:42;;;;;;;;;;;;;;;;;;5063069;28;20061;-67
2022/10/11 07:42:08;;;;;;;;;;;;;;;;;;5064948;28;19924;-65
2022/10/11 07:44:35;;;;;;;;;;;;;;;;;;5066661;28;19920;-66
2022/10/11 07:47:01;;;;;;;;;;;;;;;;;;5064948;28;20433;-67
2022/10/11 07:49:27;;;;;;;;;;;;;;;;;;5067590;28;19916;-66
2022/10/11 07:51:54;;;;;;;;;;;;;;;;;;5065206;28;19927;-67
2022/10/11 07:54:20;;;;;;;;;;;;;;;;;;5065799;28;19928;-66
2022/10/11 07:56:46;;;;;;;;;;;;;;;;;;5065456;28;19977;-67
2022/10/11 07:59:12;;;;;;;;;;;;;;;;;;5068350;28;20167;-65
2022/10/11 08:01:38;;;;;;;;;;;;;;;;;;5065142;28;19924;-66
2022/10/11 08:04:04;;;;;;;;;;;;;;;;;;5066571;28;20026;-65
2022/10/11 08:06:31;;;;;;;;;;;;;;;;;;5064450;28;19920;-66
2022/10/11 08:08:57;;;;;;;;;;;;;;;;;;5066444;28;20301;-65
2022/10/11 08:11:23;;;;;;;;;;;;;;;;;;5064573;28;19924;-66
2022/10/11 08:13:49;;;;;;;;;;;;;;;;;;5066843;28;20296;-66
2022/10/11 08:16:15;;;;;;;;;;;;;;;;;;5064515;28;19943;-65
2022/10/11 08:18:41;;;;;;;;;;;;;;;;;;5065520;28;19921;-65
2022/10/11 08:21:07;;;;;;;;;;;;;;;;;;5064204;28;19944;-66
2022/10/11 08:23:33;;;;;;;;;;;;;;;;;;5059769;28;19920;-65
2022/10/11 08:25:59;;;;;;;;;;;;;;;;;;5059749;28;19932;-67
2022/10/11 08:28:25;;;;;;;;;;;;;;;;;;5067369;28;20416;-65
2022/10/11 08:30:51;;;;;;;;;;;;;;;;;;5062863;28;19924;-66
2022/10/11 08:33:17;;;;;;;;;;;;;;;;;;5066281;28;19951;-65
2022/10/11 08:35:43;;;;;;;;;;;;;;;;;;5061391;28;19967;-65
2022/10/11 08:38:09;;;;;;;;;;;;;;;;;;5065324;28;20422;-65
2022/10/11 08:40:35;;;;;;;;;;;;;;;;;;5065599;28;20331;-66
2022/10/11 08:43:01;;;;;;;;;;;;;;;;;;5068269;28;19966;-65
2022/10/11 08:45:27;;;;;;;;;;;;;;;;;;5066911;28;20082;-66
2022/10/11 08:47:53;;;;;;;;;;;;;;;;;;5064733;28;19916;-66
2022/10/11 08:50:19;;;;;;;;;;;;;;;;;;5064648;28;19920;-66
2022/10/11 08:52:45;;;;;;;;;;;;;;;;;;5066101;28;19989;-65
2022/10/11 08:55:11;;;;;;;;;;;;;;;;;;5063919;28;19920;-66
2022/10/11 08:57:37;;;;;;;;;;;;;;;;;;5063961;28;19920;-66
2022/10/11 09:00:03;;;;;;;;;;;;;;;;;;5067861;28;19916;-66
2022/10/11 09:02:29;;;;;;;;;;;;;;;;;;5061329;28;19999;-65
2022/10/11 09:04:55;;;;;;;;;;;;;;;;;;5062052;28;19921;-67
2022/10/11 09:07:21;;;;;;;;;;;;;;;;;;5063405;28;19935;-66
2022/10/11 09:09:47;;;;;;;;;;;;;;;;;;5066619;28;19927;-66
2022/10/11 09:12:13;;;;;;;;;;;;;;;;;;5063249;28;19917;-65
2022/10/11 09:14:39;;;;;;;;;;;;;;;;;;5065736;28;19912;-65
2022/10/11 09:17:05;;;;;;;;;;;;;;;;;;5062600;28;19916;-66
2022/10/11 09:19:31;;;;;;;;;;;;;;;;;;5065679;28;20033;-66
2022/10/11 09:21:57;;;;;;;;;;;;;;;;;;5062844;28;19973;-65
2022/10/11 09:24:23;;;;;;;;;;;;;;;;;;5064704;28;20011;-64
2022/10/11 09:26:49;;;;;;;;;;;;;;;;;;5062851;28;19971;-65
2022/10/11 09:29:15;;;;;;;;;;;;;;;;;;5065661;28;19920;-65
2022/10/11 09:31:41;;;;;;;;;;;;;;;;;;5061444;28;19916;-66
2022/10/11 09:34:07;;;;;;;;;;;;;;;;;;5065002;28;20046;-66
2022/10/11 09:36:33;;;;;;;;;;;;;;;;;;5063008;28;19920;-66
2022/10/11 09:38:59;;;;;;;;;;;;;;;;;;5065161;28;19916;-66
2022/10/11 09:41:24;;;;;;;;;;;;;;;;;;5062714;28;19974;-66
2022/10/11 09:43:50;;;;;;;;;;;;;;;;;;5057431;28;19917;-65
2022/10/11 09:46:16;;;;;;;;;;;;;;;;;;5062972;28;19921;-65
2022/10/11 09:48:43;;;;;;;;;;;;;;;;;;5060562;28;19974;-66
2022/10/11 09:51:09;;;;;;;;;;;;;;;;;;5062775;28;19924;-66
2022/10/11 09:53:35;;;;;;;;;;;;;;;;;;5059755;28;20403;-66
2022/10/11 09:56:01;;;;;;;;;;;;;;;;;;5061751;28;19920;-65
2022/10/11 09:58:27;;;;;;;;;;;;;;;;;;5064596;28;20038;-65
2022/10/11 10:00:53;;;;;;;;;;;;;;;;;;5060671;28;19973;-65
2022/10/11 10:03:19;;;;;;;;;;;;;;;;;;5061671;28;19920;-66
2022/10/11 10:05:45;;;;;;;;;;;;;;;;;;5063897;28;19933;-66
2022/10/11 10:08:11;;;;;;;;;;;;;;;;;;5064810;28;19927;-66
2022/10/11 10:10:39;;;;;;;;;;;;;;;;;;5063028;28;19921;-67
2022/10/11 10:13:05;;;;;;;;;;;;;;;;;;5063987;28;19962;-65
2022/10/11 10:15:31;;;;;;;;;;;;;;;;;;5062705;28;19916;-67
2022/10/11 10:17:57;;;;;;;;;;;;;;;;;;5064070;28;20385;-67
2022/10/11 10:20:23;;;;;;;;;;;;;;;;;;5065206;28;19922;-66
2022/10/11 10:22:49;;;;;;;;;;;;;;;;;;5064719;28;20030;-66
2022/10/11 10:25:15;;;;;;;;;;;;;;;;;;5063620;28;19920;-67
2022/10/11 10:27:41;;;;;;;;;;;;;;;;;;5062281;28;19924;-66
2022/10/11 10:30:07;;;;;;;;;;;;;;;;;;5064543;28;19966;-66
2022/10/11 10:32:34;;;;;;;;;;;;;;;;;;5060284;28;19920;-65
2022/10/11 10:34:59;;;;;;;;;;;;;;;;;;5063419;28;19921;-66
2022/10/11 10:37:26;;;;;;;;;;;;;;;;;;5061177;28;19943;-66
2022/10/11 10:39:53;;;;;;;;;;;;;;;;;;5060711;28;19920;-65
2022/10/11 10:42:19;;;;;;;;;;;;;;;;;;5061865;28;19916;-67
2022/10/11 10:44:45;;;;;;;;;;;;;;;;;;5058604;28;19947;-66
2022/10/11 10:47:12;;;;;;;;;;;;;;;;;;5060669;28;20054;-67
2022/10/11 10:49:38;;;;;;;;;;;;;;;;;;5064962;28;19912;-67
2022/10/11 10:52:04;;;;;;;;;;;;;;;;;;5063489;28;19917;-66
2022/10/11 10:54:30;;;;;;;;;;;;;;;;;;5064282;28;19931;-65
2022/10/11 10:56:56;;;;;;;;;;;;;;;;;;5060520;28;19938;-65
2022/10/11 10:59:22;;;;;;;;;;;;;;;;;;5064155;28;19977;-65
2022/10/11 11:01:48;;;;;;;;;;;;;;;;;;5059357;28;20380;-66
2022/10/11 11:04:14;;;;;;;;;;;;;;;;;;5063604;28;19931;-65
2022/10/11 11:06:40;;;;;;;;;;;;;;;;;;5057471;28;20357;-67
2022/10/11 11:09:06;;;;;;;;;;;;;;;;;;5063708;28;19917;-67
2022/10/11 11:11:32;;;;;;;;;;;;;;;;;;5061528;28;19920;-65
2022/10/11 11:13:58;;;;;;;;;;;;;;;;;;5064402;28;19923;-67
2022/10/11 11:16:24;;;;;;;;;;;;;;;;;;5060982;28;19924;-67
2022/10/11 11:18:50;;;;;;;;;;;;;;;;;;5065528;28;19962;-66
2022/10/11 11:21:16;;;;;;;;;;;;;;;;;;5061279;28;19948;-66
2022/10/11 11:23:42;;;;;;;;;;;;;;;;;;5063395;28;19920;-66
2022/10/11 11:26:08;;;;;;;;;;;;;;;;;;5062239;28;19925;-67
2022/10/11 11:28:35;;;;;;;;;;;;;;;;;;5066521;28;20005;-67
2022/10/11 11:31:01;;;;;;;;;;;;;;;;;;5060803;28;20444;-66
2022/10/11 11:33:27;;;;;;;;;;;;;;;;;;5064347;28;20002;-66
2022/10/11 11:35:53;;;;;;;;;;;;;;;;;;5062786;28;19943;-67
2022/10/11 11:38:19;;;;;;;;;;;;;;;;;;5063759;28;20318;-67
2022/10/11 11:40:45;;;;;;;;;;;;;;;;;;5061501;28;19931;-65
2022/10/11 11:43:11;;;;;;;;;;;;;;;;;;5064067;28;19920;-65
2022/10/11 11:45:37;;;;;;;;;;;;;;;;;;5061914;28;19927;-65
2022/10/11 11:48:03;;;;;;;;;;;;;;;;;;5063562;28;20334;-67
2022/10/11 11:50:29;;;;;;;;;;;;;;;;;;5062498;28;19967;-66
2022/10/11 11:52:55;;;;;;;;;;;;;;;;;;5063631;28;19920;-66
2022/10/11 11:55:21;;;;;;;;;;;;;;;;;;5062740;28;21035;-66
2022/10/11 11:57:47;;;;;;;;;;;;;;;;;;5057185;28;19974;-65
2022/10/11 12:00:13;;;;;;;;;;;;;;;;;;5051173;28;19916;-65
2022/10/11 12:02:38;;;;;;;;;;;;;;;;;;5061847;28;20281;-66
2022/10/11 12:05:04;;;;;;;;;;;;;;;;;;5064448;28;19916;-67
2022/10/11 12:07:30;;;;;;;;;;;;;;;;;;5059097;28;19931;-67
2022/10/11 12:09:56;;;;;;;;;;;;;;;;;;5063660;28;19923;-65
2022/10/11 12:12:22;;;;;;;;;;;;;;;;;;5061558;28;19913;-65
2022/10/11 12:14:48;;;;;;;;;;;;;;;;;;5065467;28;19924;-65
2022/10/11 12:17:15;;;;;;;;;;;;;;;;;;5063159;28;19912;-67
2022/10/11 12:19:41;;;;;;;;;;;;;;;;;;5067066;28;19920;-67
2022/10/11 12:22:07;;;;;;;;;;;;;;;;;;5074728;28;19923;-66
2022/10/11 12:24:33;;;;;;;;;;;;;;;;;;5067112;28;19916;-66
2022/10/11 12:27:00;;;;;;;;;;;;;;;;;;5065021;28;19928;-66
2022/10/11 12:29:27;;;;;;;;;;;;;;;;;;5026932;28;19928;-66
2022/10/11 12:31:53;;;;;;;;;;;;;;;;;;5008062;28;20333;-66
2022/10/11 12:34:19;;;;;;;;;;;;;;;;;;5003928;28;19999;-66
2022/10/11 12:36:45;;;;;;;;;;;;;;;;;;5004843;28;20059;-66
2022/10/11 12:39:11;;;;;;;;;;;;;;;;;;5009551;28;19972;-66
2022/10/11 12:41:37;;;;;;;;;;;;;;;;;;5008478;28;20600;-66
2022/10/11 12:44:03;;;;;;;;;;;;;;;;;;5007703;28;19925;-65
2022/10/11 12:46:32;;;;;;;;;;;;;;;;;;5005710;28;19925;-67
2022/10/11 12:48:58;;;;;;;;;;;;;;;;;;5007251;28;20019;-65
2022/10/11 12:51:24;;;;;;;;;;;;;;;;;;5004643;28;20036;-66
2022/10/11 12:53:50;;;;;;;;;;;;;;;;;;5004789;28;19917;-66
2022/10/11 12:56:16;;;;;;;;;;;;;;;;;;5003760;28;20494;-66
2022/10/11 12:58:42;;;;;;;;;;;;;;;;;;5006675;28;19921;-67
2022/10/11 13:01:09;;;;;;;;;;;;;;;;;;5002838;28;19921;-66
2022/10/11 13:03:35;;;;;;;;;;;;;;;;;;5007195;28;19925;-66
2022/10/11 13:06:00;;;;;;;;;;;;;;;;;;5000239;28;19925;-65
2022/10/11 13:08:26;;;;;;;;;;;;;;;;;;5007236;28;19924;-65
2022/10/11 13:10:52;;;;;;;;;;;;;;;;;;5003433;28;19921;-65
2022/10/11 13:13:18;;;;;;;;;;;;;;;;;;5006126;28;19921;-66
2022/10/11 13:15:44;;;;;;;;;;;;;;;;;;5004374;28;19980;-67
2022/10/11 13:18:10;;;;;;;;;;;;;;;;;;5006450;28;19918;-68
2022/10/11 13:20:36;;;;;;;;;;;;;;;;;;5006213;28;19924;-66
2022/10/11 13:23:02;;;;;;;;;;;;;;;;;;5004728;28;20015;-66
2022/10/11 13:25:28;;;;;;;;;;;;;;;;;;5004376;28;19921;-65
2022/10/11 13:27:54;;;;;;;;;;;;;;;;;;5009070;28;19931;-65
2022/10/11 13:30:20;;;;;;;;;;;;;;;;;;5003566;28;19917;-66
2022/10/11 13:32:46;;;;;;;;;;;;;;;;;;5009718;28;19928;-66
2022/10/11 13:35:13;;;;;;;;;;;;;;;;;;5012515;28;19917;-66
2022/10/11 13:37:39;;;;;;;;;;;;;;;;;;5006614;28;19921;-66
2022/10/11 13:40:05;;;;;;;;;;;;;;;;;;5006346;28;20588;-66
2022/10/11 13:42:31;;;;;;;;;;;;;;;;;;5006889;28;19964;-66
2022/10/11 13:44:57;;;;;;;;;;;;;;;;;;4999332;28;19956;-65
2022/10/11 13:47:22;;;;;;;;;;;;;;;;;;5003101;28;20385;-66
2022/10/11 13:49:52;;;;;;;;;;;;;;;;;;5007776;28;19921;-66
2022/10/11 13:52:18;;;;;;;;;;;;;;;;;;5005800;28;19952;-67
2022/10/11 13:54:44;;;;;;;;;;;;;;;;;;5005850;28;19963;-66
2022/10/11 13:57:10;;;;;;;;;;;;;;;;;;5003314;28;19925;-66
2022/10/11 13:59:36;;;;;;;;;;;;;;;;;;5006101;28;19917;-67
2022/10/11 14:02:03;;;;;;;;;;;;;;;;;;5002593;28;19964;-66
2022/10/11 14:04:29;;;;;;;;;;;;;;;;;;5005361;28;19923;-65
2022/10/11 14:06:55;;;;;;;;;;;;;;;;;;5002130;28;19921;-67
2022/10/11 14:09:21;;;;;;;;;;;;;;;;;;5007701;28;19917;-66
2022/10/11 14:11:47;;;;;;;;;;;;;;;;;;5002264;28;20411;-67
2022/10/11 14:14:13;;;;;;;;;;;;;;;;;;5004697;28;20400;-66
2022/10/11 14:16:39;;;;;;;;;;;;;;;;;;5002498;28;19917;-65
2022/10/11 14:19:05;;;;;;;;;;;;;;;;;;5005600;28;19924;-65
2022/10/11 14:21:31;;;;;;;;;;;;;;;;;;5002964;28;19917;-66
2022/10/11 14:23:57;;;;;;;;;;;;;;;;;;5005888;28;19921;-66
2022/10/11 14:26:23;;;;;;;;;;;;;;;;;;5004020;28;19925;-66
2022/10/11 14:28:48;;;;;;;;;;;;;;;;;;5005014;28;19925;-66
2022/10/11 14:31:15;;;;;;;;;;;;;;;;;;4999683;28;19913;-66
2022/10/11 14:33:41;;;;;;;;;;;;;;;;;;5008770;28;19921;-66
2022/10/11 14:36:07;;;;;;;;;;;;;;;;;;5003451;28;19972;-66
2022/10/11 14:38:33;;;;;;;;;;;;;;;;;;5009392;28;20015;-66
2022/10/11 14:40:59;;;;;;;;;;;;;;;;;;5005554;28;20397;-65
2022/10/11 14:43:24;;;;;;;;;;;;;;;;;;4999580;28;20405;-66
2022/10/11 14:45:50;;;;;;;;;;;;;;;;;;5000659;28;19955;-66
2022/10/11 14:48:16;;;;;;;;;;;;;;;;;;4996540;28;20016;-66
2022/10/11 14:50:43;;;;;;;;;;;;;;;;;;5000553;28;20286;-66
2022/10/11 14:53:09;;;;;;;;;;;;;;;;;;5004988;28;19933;-68
2022/10/11 14:55:35;;;;;;;;;;;;;;;;;;4999483;28;19925;-65
2022/10/11 14:58:01;;;;;;;;;;;;;;;;;;4998725;28;19922;-66
2022/10/11 15:00:27;;;;;;;;;;;;;;;;;;4997373;28;19921;-67
2022/10/11 15:02:53;;;;;;;;;;;;;;;;;;4997494;28;19922;-67
2022/10/11 15:05:19;;;;;;;;;;;;;;;;;;5008524;28;20484;-66
2022/10/11 15:07:45;;;;;;;;;;;;;;;;;;4998955;28;20019;-67
2022/10/11 15:10:11;;;;;;;;;;;;;;;;;;5007421;28;19917;-67
2022/10/11 15:12:37;;;;;;;;;;;;;;;;;;4994692;28;19928;-67
2022/10/11 15:15:03;;;;;;;;;;;;;;;;;;4997023;28;19917;-69
2022/10/11 15:17:29;;;;;;;;;;;;;;;;;;4996565;28;19944;-68
2022/10/11 15:19:55;;;;;;;;;;;;;;;;;;5008415;28;19975;-67
2022/10/11 15:22:21;;;;;;;;;;;;;;;;;;5001149;28;19927;-67
2022/10/11 15:24:47;;;;;;;;;;;;;;;;;;5001697;28;19917;-68
2022/10/11 15:27:15;;;;;;;;;;;;;;;;;;4994578;28;19921;-68
2022/10/11 15:29:41;;;;;;;;;;;;;;;;;;5009188;28;19921;-69
2022/10/11 15:32:08;;;;;;;;;;;;;;;;;;4999937;28;19928;-69
2022/10/11 15:34:33;;;;;;;;;;;;;;;;;;5008241;28;19922;-68
2022/10/11 15:36:59;;;;;;;;;;;;;;;;;;5000932;28;20043;-67
2022/10/11 15:39:25;;;;;;;;;;;;;;;;;;5002192;28;19917;-65
2022/10/11 15:41:51;;;;;;;;;;;;;;;;;;5004397;28;20049;-68
2022/10/11 15:44:17;;;;;;;;;;;;;;;;;;5006782;28;19925;-65
2022/10/11 15:46:44;;;;;;;;;;;;;;;;;;5000232;28;19927;-68
2022/10/11 15:49:10;;;;;;;;;;;;;;;;;;4994498;28;19917;-68
2022/10/11 15:51:36;;;;;;;;;;;;;;;;;;5003268;28;20348;-68
2022/10/11 15:54:02;;;;;;;;;;;;;;;;;;5011007;28;19944;-68
2022/10/11 15:56:28;;;;;;;;;;;;;;;;;;5004640;28;19968;-68
2022/10/11 15:58:54;;;;;;;;;;;;;;;;;;5007216;28;19918;-69
2022/10/11 16:01:20;;;;;;;;;;;;;;;;;;5003756;28;19971;-68
2022/10/11 16:03:46;;;;;;;;;;;;;;;;;;5007411;28;19928;-66
2022/10/11 16:06:12;;;;;;;;;;;;;;;;;;5007348;28;19929;-66
2022/10/11 16:08:38;;;;;;;;;;;;;;;;;;5002625;28;19980;-66
2022/10/11 16:11:04;;;;;;;;;;;;;;;;;;5008282;28;19918;-65
2022/10/11 16:13:30;;;;;;;;;;;;;;;;;;5008969;28;19975;-67
2022/10/11 16:15:56;;;;;;;;;;;;;;;;;;5011628;28;19924;-66
2022/10/11 16:18:22;;;;;;;;;;;;;;;;;;5005767;28;19944;-66
2022/10/11 16:20:48;;;;;;;;;;;;;;;;;;5003571;28;19922;-67
2022/10/11 16:23:14;;;;;;;;;;;;;;;;;;5001534;28;20012;-67
2022/10/11 16:25:40;;;;;;;;;;;;;;;;;;5009365;28;20031;-67
2022/10/11 16:28:06;;;;;;;;;;;;;;;;;;5005960;28;19921;-67
2022/10/11 16:30:32;;;;;;;;;;;;;;;;;;5007296;28;19976;-67
2022/10/11 16:32:58;;;;;;;;;;;;;;;;;;4999158;28;19921;-67
2022/10/11 16:35:24;;;;;;;;;;;;;;;;;;5009353;28;20358;-68
2022/10/11 16:37:50;;;;;;;;;;;;;;;;;;5005069;28;19917;-66
2022/10/11 16:40:19;;;;;;;;;;;;;;;;;;5005884;28;20078;-66
2022/10/11 16:42:45;;;;;;;;;;;;;;;;;;5004312;28;19918;-66
2022/10/11 16:45:11;;;;;;;;;;;;;;;;;;5008806;28;19928;-66
2022/10/11 16:47:37;;;;;;;;;;;;;;;;;;5003598;28;19925;-67
2022/10/11 16:50:03;;;;;;;;;;;;;;;;;;5009343;28;20373;-67
2022/10/11 16:52:29;;;;;;;;;;;;;;;;;;5000135;28;20000;-67
2022/10/11 16:54:55;;;;;;;;;;;;;;;;;;5007239;28;19987;-67
2022/10/11 16:57:21;;;;;;;;;;;;;;;;;;5004018;28;20416;-68
2022/10/11 16:59:47;;;;;;;;;;;;;;;;;;5006493;28;19921;-67
2022/10/11 17:02:13;;;;;;;;;;;;;;;;;;5002732;28;20444;-66
2022/10/11 17:04:39;;;;;;;;;;;;;;;;;;5003426;28;19932;-66